createdAt,value
2022-11-03T00:00:00.363Z,5.45
2022-11-03T00:02:27.553Z,5.07
2022-11-03T00:04:54.646Z,5.00
2022-11-03T00:07:24.861Z,4.68
2022-11-03T00:09:54.955Z,3.88
2022-11-03T00:12:23.130Z,4.03
2022-11-03T00:14:50.257Z,3.67
2022-11-03T00:17:23.210Z,3.50
2022-11-03T00:19:50.275Z,3.42
2022-11-03T00:22:18.698Z,3.58
2022-11-03T00:24:50.407Z,3.28
2022-11-03T00:27:17.843Z,4.53
2022-11-03T00:29:45.411Z,3.80
2022-11-03T00:32:12.491Z,3.47
2022-11-03T00:34:40.686Z,3.33
2022-11-03T00:37:08.134Z,3.40
2022-11-03T00:39:38.032Z,3.00
2022-11-03T00:42:13.648Z,3.33
2022-11-03T00:44:41.537Z,4.30
2022-11-03T00:47:08.719Z,4.13
2022-11-03T00:49:39.023Z,3.42
2022-11-03T00:52:08.323Z,3.47
2022-11-03T00:54:35.370Z,3.25
2022-11-03T00:57:03.099Z,3.20
2022-11-03T00:59:32.476Z,3.20
2022-11-03T01:02:03.487Z,5.10
2022-11-03T01:04:49.982Z,3.95
2022-11-03T01:07:28.793Z,3.97
2022-11-03T01:09:58.584Z,4.72
2022-11-03T01:12:25.684Z,4.55
2022-11-03T01:14:54.026Z,4.93
2022-11-03T01:17:25.374Z,4.38
2022-11-03T01:19:53.394Z,6.72
2022-11-03T01:22:22.751Z,5.38
2022-11-03T01:24:51.889Z,5.85
2022-11-03T01:27:27.444Z,5.47
2022-11-03T01:29:54.562Z,6.43
2022-11-03T01:32:22.216Z,6.00
2022-11-03T01:34:49.271Z,7.35
2022-11-03T01:37:18.584Z,6.72
2022-11-03T01:39:48.774Z,7.15
2022-11-03T01:42:15.929Z,6.43
2022-11-03T01:44:48.571Z,7.57
2022-11-03T01:47:28.454Z,7.50
2022-11-03T01:50:07.720Z,7.25
2022-11-03T01:52:43.035Z,7.15
2022-11-03T01:55:22.175Z,6.35
2022-11-03T01:58:29.868Z,5.53
2022-11-03T02:01:02.354Z,4.47
2022-11-03T02:03:38.036Z,6.68
2022-11-03T02:06:11.851Z,8.80
2022-11-03T02:11:34.024Z,6.15
2022-11-03T02:14:03.771Z,6.50
2022-11-03T02:16:34.714Z,9.13
2022-11-03T02:19:06.978Z,7.70
2022-11-03T02:22:00.857Z,7.72
2022-11-03T02:25:15.676Z,6.20
2022-11-03T02:27:43.577Z,6.22
2022-11-03T02:30:14.678Z,6.32
2022-11-03T02:33:17.239Z,5.18
2022-11-03T02:36:19.337Z,5.07
2022-11-03T02:39:08.770Z,5.40
2022-11-03T02:41:39.881Z,4.90
2022-11-03T02:44:16.680Z,4.82
2022-11-03T02:46:49.667Z,4.20
2022-11-03T02:49:17.309Z,4.60
2022-11-03T02:51:44.576Z,4.47
2022-11-03T02:54:15.175Z,5.35
2022-11-03T02:57:12.126Z,5.25
2022-11-03T02:59:56.734Z,4.75
2022-11-03T03:02:47.793Z,4.75
2022-11-03T03:05:19.088Z,4.72
2022-11-03T03:07:56.619Z,4.43
2022-11-03T03:10:36.635Z,4.53
2022-11-03T03:13:08.586Z,4.68
2022-11-03T03:15:49.895Z,4.97
2022-11-03T03:18:25.028Z,4.80
2022-11-03T03:21:09.975Z,5.10
2022-11-03T03:23:49.900Z,5.68
2022-11-03T03:26:47.420Z,5.00
2022-11-03T03:29:40.461Z,5.57
2022-11-03T03:32:11.439Z,5.43
2022-11-03T03:34:43.723Z,5.85
2022-11-03T03:37:16.824Z,5.78
2022-11-03T03:39:54.329Z,5.90
2022-11-03T03:42:30.241Z,5.47
2022-11-03T03:44:59.777Z,6.13
2022-11-03T03:47:33.825Z,5.10
2022-11-03T03:50:02.397Z,6.25
2022-11-03T03:52:31.509Z,5.97
2022-11-03T03:55:02.542Z,5.63
2022-11-03T03:57:32.020Z,5.80
2022-11-03T03:59:59.438Z,6.35
2022-11-03T04:02:36.797Z,6.00
2022-11-03T04:05:05.484Z,6.18
2022-11-03T04:07:48.220Z,7.22
2022-11-03T04:10:22.606Z,6.85
2022-11-03T04:13:09.878Z,9.00
2022-11-03T04:15:56.732Z,8.80
2022-11-03T04:18:45.774Z,9.27
2022-11-03T04:21:35.906Z,7.28
2022-11-03T04:24:04.303Z,8.10
2022-11-03T04:26:38.990Z,8.35
2022-11-03T04:29:11.219Z,7.05
2022-11-03T04:31:42.134Z,8.75
2022-11-03T04:34:14.741Z,8.65
2022-11-03T04:36:42.376Z,7.43
2022-11-03T04:39:21.631Z,8.15
2022-11-03T04:41:49.362Z,7.95
2022-11-03T04:44:19.645Z,8.18
2022-11-03T04:46:50.523Z,8.35
2022-11-03T04:49:33.311Z,6.35
2022-11-03T04:52:04.020Z,8.73
2022-11-03T04:54:36.625Z,8.77
2022-11-03T04:57:17.006Z,9.25
2022-11-03T04:59:53.350Z,8.23
2022-11-03T05:02:22.368Z,7.18
2022-11-03T05:04:49.536Z,7.65
2022-11-03T05:07:31.708Z,8.05
2022-11-03T05:10:00.226Z,8.55
2022-11-03T05:12:31.155Z,8.98
2022-11-03T05:14:59.579Z,7.30
2022-11-03T05:17:29.674Z,6.25
2022-11-03T05:20:02.575Z,5.30
2022-11-03T05:22:40.751Z,7.63
2022-11-03T05:25:43.633Z,5.28
2022-11-03T05:28:37.932Z,5.57
2022-11-03T05:31:31.104Z,5.07
2022-11-03T05:34:25.940Z,7.30
2022-11-03T05:36:54.439Z,5.68
2022-11-03T05:39:38.310Z,5.80
2022-11-03T05:42:32.664Z,6.68
2022-11-03T05:45:04.966Z,7.10
2022-11-03T05:47:41.059Z,7.35
2022-11-03T05:50:22.085Z,7.32
2022-11-03T05:52:56.484Z,6.78
2022-11-03T05:55:34.886Z,5.25
2022-11-03T05:58:40.619Z,9.35
2022-11-03T06:01:39.915Z,8.80
2022-11-03T06:04:24.960Z,9.07
2022-11-03T06:07:18.556Z,9.93
2022-11-03T06:09:45.741Z,9.40
2022-11-03T06:12:19.470Z,9.95
2022-11-03T06:14:50.002Z,10.05
2022-11-03T06:17:28.846Z,8.95
2022-11-03T06:20:00.784Z,7.22
2022-11-03T06:22:31.795Z,6.78
2022-11-03T06:25:12.967Z,5.78
2022-11-03T06:27:40.472Z,6.72
2022-11-03T06:30:34.367Z,6.57
2022-11-03T06:33:19.772Z,5.43
2022-11-03T06:35:50.247Z,5.47
2022-11-03T06:38:34.765Z,8.27
2022-11-03T06:41:02.108Z,8.32
2022-11-03T06:43:42.976Z,9.48
2022-11-03T06:46:32.957Z,8.13
2022-11-03T06:49:07.263Z,6.82
2022-11-03T06:51:37.200Z,6.30
2022-11-03T06:54:13.918Z,6.63
2022-11-03T06:56:41.869Z,6.50
2022-11-03T06:59:16.959Z,6.07
2022-11-03T07:01:48.664Z,6.90
2022-11-03T07:04:28.673Z,6.50
2022-11-03T07:07:02.912Z,5.90
2022-11-03T07:09:30.239Z,8.25
2022-11-03T07:12:17.171Z,6.80
2022-11-03T07:14:44.693Z,7.38
2022-11-03T07:17:21.934Z,7.40
2022-11-03T07:19:51.000Z,7.50
2022-11-03T07:22:27.704Z,7.10
2022-11-03T07:25:06.507Z,8.05
2022-11-03T07:27:42.433Z,9.07
2022-11-03T07:30:23.047Z,9.48
2022-11-03T07:32:55.116Z,9.90
2022-11-03T07:36:14.951Z,10.68
2022-11-03T07:38:38.840Z,10.35
2022-11-03T07:41:17.462Z,9.73
2022-11-03T07:43:58.224Z,10.15
2022-11-03T07:46:26.973Z,9.82
2022-11-03T07:49:03.844Z,9.98
2022-11-03T07:51:41.628Z,9.30
2022-11-03T07:54:34.679Z,9.25
2022-11-03T07:57:18.775Z,8.77
2022-11-03T07:59:50.576Z,8.77
2022-11-03T08:02:26.530Z,8.68
2022-11-03T08:04:56.609Z,9.02
2022-11-03T08:07:25.717Z,8.80
2022-11-03T08:09:53.518Z,10.52
2022-11-03T08:12:22.800Z,9.55
2022-11-03T08:14:50.053Z,11.13
2022-11-03T08:17:18.253Z,10.60
2022-11-03T08:19:46.458Z,11.65
2022-11-03T08:22:13.586Z,10.13
2022-11-03T08:27:10.325Z,10.05
2022-11-03T08:29:37.870Z,11.82
2022-11-03T08:32:07.866Z,11.02
2022-11-03T08:34:35.705Z,9.70
2022-11-03T08:37:03.947Z,8.35
2022-11-03T08:39:31.558Z,9.30
2022-11-03T08:41:58.776Z,8.98
2022-11-03T08:44:29.439Z,8.63
2022-11-03T08:46:57.300Z,8.40
2022-11-03T08:49:26.277Z,7.95
2022-11-03T08:51:53.907Z,7.38
2022-11-03T08:54:20.980Z,8.32
2022-11-03T08:56:51.760Z,7.75
2022-11-03T08:59:18.942Z,8.07
2022-11-03T09:01:46.873Z,6.97
2022-11-03T09:04:14.826Z,7.25
2022-11-03T09:06:41.956Z,8.93
2022-11-03T09:11:59.525Z,8.80
2022-11-03T09:14:28.614Z,8.23
2022-11-03T09:16:56.056Z,7.45
2022-11-03T09:19:23.330Z,7.25
2022-11-03T09:21:53.245Z,8.25
2022-11-03T09:24:27.539Z,7.78
2022-11-03T09:27:02.224Z,7.60
2022-11-03T09:29:32.921Z,7.70
2022-11-03T09:32:08.406Z,8.63
2022-11-03T09:34:35.606Z,7.70
2022-11-03T09:37:05.080Z,6.50
2022-11-03T09:39:35.252Z,6.47
2022-11-03T09:42:04.924Z,7.30
2022-11-03T09:44:36.919Z,6.35
2022-11-03T09:47:06.409Z,7.38
2022-11-03T09:49:38.660Z,7.18
2022-11-03T09:52:06.097Z,7.63
2022-11-03T09:54:33.685Z,8.27
2022-11-03T09:57:18.340Z,10.18
2022-11-03T09:59:52.927Z,10.63
2022-11-03T10:02:31.510Z,9.98
2022-11-03T10:05:08.244Z,10.18
2022-11-03T10:07:39.543Z,7.80
2022-11-03T10:10:08.696Z,8.30
2022-11-03T10:12:48.162Z,7.43
2022-11-03T10:15:19.060Z,8.40
2022-11-03T10:17:47.275Z,6.57
2022-11-03T10:20:22.485Z,7.22
2022-11-03T10:22:54.831Z,9.00
2022-11-03T10:25:45.368Z,7.85
2022-11-03T10:28:23.853Z,8.88
2022-11-03T10:31:14.531Z,7.18
2022-11-03T10:33:55.412Z,7.68
2022-11-03T10:36:29.630Z,7.05
2022-11-03T10:38:58.468Z,5.65
2022-11-03T10:41:33.330Z,5.05
2022-11-03T10:44:06.092Z,5.00
2022-11-03T10:46:50.290Z,4.80
2022-11-03T10:49:20.650Z,4.10
2022-11-03T10:51:53.609Z,4.55
2022-11-03T10:54:24.571Z,3.42
2022-11-03T10:56:53.237Z,3.67
2022-11-03T10:59:32.049Z,3.63
2022-11-03T11:02:01.220Z,2.65
2022-11-03T11:04:32.780Z,2.90
2022-11-03T11:07:00.535Z,2.45
2022-11-03T11:09:28.818Z,3.28
2022-11-03T11:12:19.429Z,3.33
2022-11-03T11:15:07.650Z,3.50
2022-11-03T11:17:37.705Z,3.75
2022-11-03T11:20:23.152Z,3.10
2022-11-03T11:22:51.419Z,3.20
2022-11-03T11:25:21.365Z,3.13
2022-11-03T11:27:58.309Z,3.33
2022-11-03T11:30:58.994Z,2.22
2022-11-03T11:33:35.964Z,2.63
2022-11-03T11:36:22.224Z,3.13
2022-11-03T11:38:49.378Z,2.75
2022-11-03T11:41:21.032Z,2.65
2022-11-03T11:43:52.236Z,3.53
2022-11-03T11:46:41.241Z,3.72
2022-11-03T11:49:08.221Z,4.10
2022-11-03T11:51:39.524Z,4.32
2022-11-03T11:54:19.200Z,4.75
2022-11-03T11:56:50.584Z,4.13
2022-11-03T11:59:25.616Z,3.42
2022-11-03T12:01:59.023Z,3.95
2022-11-03T12:04:33.243Z,4.28
2022-11-03T12:07:02.752Z,3.70
2022-11-03T12:09:30.546Z,4.63
2022-11-03T12:12:08.536Z,3.97
2022-11-03T12:14:40.630Z,3.75
2022-11-03T12:17:17.271Z,3.08
2022-11-03T12:19:49.879Z,3.50
2022-11-03T12:22:46.563Z,4.32
2022-11-03T12:25:36.670Z,3.45
2022-11-03T12:28:05.528Z,4.00
2022-11-03T12:30:38.422Z,3.80
2022-11-03T12:33:09.850Z,4.10
2022-11-03T12:35:37.728Z,3.15
2022-11-03T12:38:05.818Z,4.30
2022-11-03T12:40:38.881Z,4.40
2022-11-03T12:45:33.308Z,3.90
2022-11-03T12:48:08.617Z,4.07
2022-11-03T12:50:39.347Z,3.50
2022-11-03T12:53:07.097Z,3.60
2022-11-03T12:55:36.438Z,4.10
2022-11-03T12:58:05.471Z,4.18
2022-11-03T13:00:35.294Z,4.43
2022-11-03T13:03:02.446Z,3.42
2022-11-03T13:05:32.445Z,3.67
2022-11-03T13:08:02.268Z,3.70
2022-11-03T13:10:29.495Z,3.30
2022-11-03T13:12:59.351Z,2.92
2022-11-03T13:15:26.433Z,3.55
2022-11-03T13:20:45.445Z,3.20
2022-11-03T13:23:16.297Z,2.65
2022-11-03T13:25:46.920Z,3.45
2022-11-03T13:28:14.158Z,3.33
2022-11-03T13:30:47.227Z,2.92
2022-11-03T13:35:43.607Z,3.10
2022-11-03T13:38:10.774Z,2.72
2022-11-03T13:40:57.741Z,2.90
2022-11-03T13:43:32.497Z,2.70
2022-11-03T13:51:19.069Z,2.92
2022-11-03T14:04:58.615Z,3.50
2022-11-03T14:07:25.764Z,3.17
2022-11-03T14:09:55.869Z,3.58
2022-11-03T14:12:32.272Z,4.28
2022-11-03T14:15:09.199Z,3.38
2022-11-03T14:17:37.128Z,3.63
2022-11-03T14:20:09.658Z,3.03
2022-11-03T14:22:37.987Z,3.35
2022-11-03T14:25:06.360Z,3.15
2022-11-03T14:27:33.702Z,3.38
2022-11-03T14:30:00.926Z,3.30
2022-11-03T14:32:29.144Z,3.35
2022-11-03T14:34:58.599Z,4.05
2022-11-03T14:37:26.183Z,3.60
2022-11-03T14:39:53.698Z,3.15
2022-11-03T14:42:24.292Z,4.03
2022-11-03T14:47:30.394Z,3.38
2022-11-03T14:49:57.462Z,3.83
2022-11-03T14:52:25.565Z,3.25
2022-11-03T14:54:52.730Z,3.60
2022-11-03T14:57:19.848Z,4.38
2022-11-03T14:59:53.394Z,3.72
2022-11-03T15:02:25.067Z,3.58
2022-11-03T15:04:54.313Z,4.03
2022-11-03T15:07:22.621Z,4.10
2022-11-03T15:09:49.672Z,3.45
2022-11-03T15:14:44.953Z,3.70
2022-11-03T15:17:13.018Z,4.32
2022-11-03T15:19:42.155Z,3.80
2022-11-03T15:22:09.623Z,3.50
2022-11-03T15:27:23.916Z,3.88
2022-11-03T15:32:18.190Z,3.38
2022-11-03T15:34:46.501Z,3.53
2022-11-03T15:39:46.462Z,3.08
2022-11-03T15:42:13.502Z,3.22
2022-11-03T15:44:40.638Z,3.65
2022-11-03T15:49:39.168Z,3.58
2022-11-03T15:52:06.742Z,4.10
2022-11-03T15:54:38.491Z,3.85
2022-11-03T15:57:09.527Z,3.90
2022-11-03T15:59:36.713Z,4.00
2022-11-03T16:04:47.553Z,3.40
2022-11-03T16:07:14.673Z,3.88
2022-11-03T16:12:09.531Z,3.65
2022-11-03T16:14:36.865Z,3.78
2022-11-03T16:17:06.075Z,4.20
2022-11-03T16:19:33.281Z,3.63
2022-11-03T16:22:01.811Z,3.85
2022-11-03T16:24:34.857Z,4.82
2022-11-03T16:27:04.969Z,5.25
2022-11-03T16:29:32.227Z,5.45
2022-11-03T16:32:00.582Z,7.20
2022-11-03T16:34:28.016Z,5.10
2022-11-03T16:36:56.550Z,5.93
2022-11-03T16:39:25.119Z,6.38
2022-11-03T16:41:54.945Z,4.82
2022-11-03T16:44:22.781Z,5.38
2022-11-03T16:46:49.996Z,5.32
2022-11-03T16:49:17.156Z,5.90
2022-11-03T16:51:45.019Z,5.50
2022-11-03T16:54:13.291Z,5.63
2022-11-03T16:56:41.220Z,6.13
2022-11-03T16:59:11.818Z,6.28
2022-11-03T17:01:39.449Z,6.57
2022-11-03T17:04:07.016Z,6.57
2022-11-03T17:06:37.997Z,7.22
2022-11-03T17:09:08.150Z,6.55
2022-11-03T17:11:38.357Z,6.93
2022-11-03T17:14:14.059Z,8.00
2022-11-03T17:16:48.626Z,7.28
2022-11-03T17:19:16.796Z,7.63
2022-11-03T17:21:45.590Z,6.85
2022-11-03T17:24:13.530Z,8.90
2022-11-03T17:27:05.265Z,10.93
2022-11-03T17:29:43.527Z,10.45
2022-11-03T17:32:27.205Z,11.07
2022-11-03T17:34:58.069Z,10.43
2022-11-03T17:37:27.389Z,11.00
2022-11-03T17:39:56.576Z,11.20
2022-11-03T17:42:27.383Z,11.35
2022-11-03T17:44:58.590Z,11.48
2022-11-03T17:47:31.700Z,10.30
2022-11-03T17:50:01.714Z,9.27
2022-11-03T17:52:31.563Z,7.57
2022-11-03T17:55:29.825Z,9.23
2022-11-03T17:58:07.903Z,8.43
2022-11-03T18:00:37.529Z,7.32
2022-11-03T18:03:16.237Z,7.35
2022-11-03T18:05:44.577Z,8.38
2022-11-03T18:08:16.852Z,7.22
2022-11-03T18:10:54.423Z,8.05
2022-11-03T18:13:34.476Z,7.15
2022-11-03T18:16:14.594Z,7.78
2022-11-03T18:18:48.847Z,7.45
2022-11-03T18:21:25.505Z,6.78
2022-11-03T18:23:53.055Z,6.78
2022-11-03T18:26:31.050Z,7.70
2022-11-03T18:28:58.604Z,7.80
2022-11-03T18:31:50.507Z,6.97
2022-11-03T18:34:25.984Z,6.55
2022-11-03T18:36:55.439Z,7.35
2022-11-03T18:39:30.643Z,7.35
2022-11-03T18:41:57.768Z,8.77
2022-11-03T18:46:58.972Z,9.50
2022-11-03T18:49:37.785Z,7.57
2022-11-03T18:52:14.306Z,8.05
2022-11-03T18:54:52.989Z,8.82
2022-11-03T18:57:25.744Z,9.05
2022-11-03T18:59:54.222Z,9.15
2022-11-03T19:02:26.624Z,9.57
2022-11-03T19:04:54.549Z,10.02
2022-11-03T19:07:55.356Z,10.13
2022-11-03T19:10:24.636Z,9.65
2022-11-03T19:12:54.496Z,9.10
2022-11-03T19:15:25.188Z,10.23
2022-11-03T19:17:58.115Z,10.30
2022-11-03T19:20:28.880Z,8.85
2022-11-03T19:22:56.634Z,9.68
2022-11-03T19:25:25.887Z,8.70
2022-11-03T19:27:57.724Z,9.90
2022-11-03T19:30:32.542Z,9.20
2022-11-03T19:33:00.938Z,9.10
2022-11-03T19:35:39.022Z,9.20
2022-11-03T19:38:23.060Z,9.15
2022-11-03T19:41:09.434Z,9.98
2022-11-03T19:43:41.723Z,9.82
2022-11-03T19:46:21.596Z,8.88
2022-11-03T19:51:20.076Z,10.20
2022-11-03T19:53:51.433Z,10.55
2022-11-03T19:56:23.005Z,10.52
2022-11-03T19:58:52.614Z,10.52
2022-11-03T20:01:23.525Z,9.65
2022-11-03T20:03:58.203Z,10.82
2022-11-03T20:06:31.790Z,10.98
2022-11-03T20:11:29.246Z,9.85
2022-11-03T20:13:57.581Z,10.15
2022-11-03T20:16:26.502Z,10.90
2022-11-03T20:18:54.109Z,9.55
2022-11-03T20:21:23.030Z,9.80
2022-11-03T20:23:57.610Z,9.15
2022-11-03T20:26:27.340Z,10.27
2022-11-03T20:29:01.903Z,8.80
2022-11-03T20:31:30.076Z,10.57
2022-11-03T20:33:59.685Z,9.20
2022-11-03T20:36:31.051Z,10.70
2022-11-03T20:39:02.541Z,8.48
2022-11-03T20:41:33.121Z,9.07
2022-11-03T20:44:02.593Z,7.60
2022-11-03T20:46:36.591Z,7.35
2022-11-03T20:49:05.939Z,8.38
2022-11-03T20:51:47.291Z,7.68
2022-11-03T20:54:18.856Z,7.70
2022-11-03T20:56:48.623Z,7.40
2022-11-03T20:59:18.915Z,7.68
2022-11-03T21:01:51.765Z,6.95
2022-11-03T21:04:32.952Z,7.43
2022-11-03T21:07:00.743Z,7.43
2022-11-03T21:09:28.054Z,7.88
2022-11-03T21:11:55.272Z,7.53
2022-11-03T21:17:17.928Z,7.10
2022-11-03T21:20:08.317Z,7.90
2022-11-03T21:22:52.266Z,8.65
2022-11-03T21:25:22.844Z,8.43
2022-11-03T21:27:53.809Z,8.63
2022-11-03T21:30:22.669Z,9.02
2022-11-03T21:32:51.491Z,9.15
2022-11-03T21:35:21.939Z,8.88
2022-11-03T21:37:56.449Z,7.82
2022-11-03T21:40:28.714Z,10.20
2022-11-03T21:43:17.168Z,8.63
2022-11-03T21:45:44.933Z,8.50
2022-11-03T21:48:40.664Z,9.50
2022-11-03T21:51:09.754Z,9.88
2022-11-03T21:53:41.955Z,8.63
2022-11-03T21:56:15.406Z,8.68
2022-11-03T21:58:44.301Z,8.65
2022-11-03T22:01:14.728Z,9.55
2022-11-03T22:03:48.080Z,9.50
2022-11-03T22:06:15.609Z,9.23
2022-11-03T22:08:45.259Z,9.55
2022-11-03T22:11:23.946Z,9.52
2022-11-03T22:14:05.046Z,9.15
2022-11-03T22:16:42.526Z,9.27
2022-11-03T22:19:38.779Z,9.13
2022-11-03T22:22:33.604Z,9.55
2022-11-03T22:25:20.704Z,8.63
2022-11-03T22:27:52.381Z,6.68
2022-11-03T22:30:41.046Z,8.00
2022-11-03T22:33:08.214Z,9.25
2022-11-03T22:38:46.375Z,7.50
2022-11-03T22:41:32.920Z,7.43
2022-11-03T22:44:18.663Z,7.30
2022-11-03T22:46:48.671Z,6.65
2022-11-03T22:49:22.591Z,6.38
2022-11-03T22:51:50.784Z,6.45
2022-11-03T22:54:19.984Z,7.15
2022-11-03T22:56:48.853Z,6.30
2022-11-03T22:59:16.282Z,7.00
2022-11-03T23:01:46.248Z,6.78
2022-11-03T23:04:15.313Z,6.45
2022-11-03T23:06:47.041Z,7.47
2022-11-03T23:09:17.791Z,7.57
2022-11-03T23:11:47.283Z,7.22
2022-11-03T23:14:19.046Z,7.35
2022-11-03T23:16:48.479Z,8.20
2022-11-03T23:19:34.956Z,7.38
2022-11-03T23:22:02.272Z,6.63
2022-11-03T23:24:47.899Z,7.63
2022-11-03T23:27:16.730Z,10.02
2022-11-03T23:29:50.238Z,8.93
2022-11-03T23:32:20.325Z,10.23
2022-11-03T23:34:47.595Z,8.27
2022-11-03T23:39:44.525Z,10.07
2022-11-03T23:42:11.972Z,9.05
2022-11-03T23:44:57.805Z,10.80
2022-11-03T23:47:43.529Z,10.88
2022-11-03T23:50:20.882Z,10.20
2022-11-03T23:52:47.974Z,9.45
2022-11-03T23:55:15.094Z,11.35
2022-11-03T23:58:10.355Z,11.48
